sensor_id;sensor_type;location;lat;lon;timestamp;P1;durP1;ratioP1;P2;durP2;ratioP2
2874;SDS011;1445;52.600;13.328;2023-08-21T00:00:28;2.00;;;1.83;;
2874;SDS011;1445;52.600;13.328;2023-08-21T00:02:53;3.25;;;2.25;;
2874;SDS011;1445;52.600;13.328;2023-08-21T00:05:19;3.60;;;2.40;;
2874;SDS011;1445;52.600;13.328;2023-08-21T00:07:44;2.28;;;2.08;;
2874;SDS011;1445;52.600;13.328;2023-08-21T00:10:11;4.43;;;2.63;;
2874;SDS011;1445;52.600;13.328;2023-08-21T00:12:39;3.22;;;2.42;;
2874;SDS011;1445;52.600;13.328;2023-08-21T00:15:04;2.92;;;1.75;;
2874;SDS011;1445;52.600;13.328;2023-08-21T00:17:30;3.58;;;2.42;;
2874;SDS011;1445;52.600;13.328;2023-08-21T00:19:56;3.85;;;2.38;;
2874;SDS011;1445;52.600;13.328;2023-08-21T00:22:21;5.95;;;2.60;;
2874;SDS011;1445;52.600;13.328;2023-08-21T00:24:46;4.78;;;2.20;;
2874;SDS011;1445;52.600;13.328;2023-08-21T00:27:12;1.90;;;1.52;;
2874;SDS011;1445;52.600;13.328;2023-08-21T00:29:37;4.60;;;2.30;;
2874;SDS011;1445;52.600;13.328;2023-08-21T00:32:03;2.20;;;1.80;;
2874;SDS011;1445;52.600;13.328;2023-08-21T00:34:28;2.72;;;2.45;;
2874;SDS011;1445;52.600;13.328;2023-08-21T00:36:53;3.03;;;1.77;;
2874;SDS011;1445;52.600;13.328;2023-08-21T00:39:19;4.53;;;2.58;;
2874;SDS011;1445;52.600;13.328;2023-08-21T00:41:44;2.45;;;1.58;;
2874;SDS011;1445;52.600;13.328;2023-08-21T00:44:09;2.30;;;2.05;;
2874;SDS011;1445;52.600;13.328;2023-08-21T00:46:35;4.95;;;2.80;;
2874;SDS011;1445;52.600;13.328;2023-08-21T00:49:00;3.08;;;1.98;;
2874;SDS011;1445;52.600;13.328;2023-08-21T00:51:27;5.10;;;2.40;;
2874;SDS011;1445;52.600;13.328;2023-08-21T00:53:53;3.55;;;1.88;;
2874;SDS011;1445;52.600;13.328;2023-08-21T00:56:19;3.67;;;1.95;;
2874;SDS011;1445;52.600;13.328;2023-08-21T00:58:44;2.53;;;1.88;;
2874;SDS011;1445;52.600;13.328;2023-08-21T01:01:10;4.45;;;2.25;;
2874;SDS011;1445;52.600;13.328;2023-08-21T01:03:37;3.25;;;2.40;;
2874;SDS011;1445;52.600;13.328;2023-08-21T01:06:03;3.95;;;2.28;;
2874;SDS011;1445;52.600;13.328;2023-08-21T01:08:43;6.20;;;2.08;;
2874;SDS011;1445;52.600;13.328;2023-08-21T01:11:28;2.53;;;1.90;;
2874;SDS011;1445;52.600;13.328;2023-08-21T01:16:59;3.22;;;2.22;;
2874;SDS011;1445;52.600;13.328;2023-08-21T01:19:31;2.78;;;2.10;;
2874;SDS011;1445;52.600;13.328;2023-08-21T01:22:02;3.78;;;2.90;;
2874;SDS011;1445;52.600;13.328;2023-08-21T01:24:28;4.75;;;2.50;;
2874;SDS011;1445;52.600;13.328;2023-08-21T01:26:53;3.13;;;2.15;;
2874;SDS011;1445;52.600;13.328;2023-08-21T01:29:19;2.75;;;2.10;;
2874;SDS011;1445;52.600;13.328;2023-08-21T01:31:46;4.80;;;2.80;;
2874;SDS011;1445;52.600;13.328;2023-08-21T01:34:17;4.15;;;2.10;;
2874;SDS011;1445;52.600;13.328;2023-08-21T01:36:42;2.63;;;2.42;;
2874;SDS011;1445;52.600;13.328;2023-08-21T01:39:09;2.65;;;2.15;;
2874;SDS011;1445;52.600;13.328;2023-08-21T01:41:34;2.15;;;1.92;;
2874;SDS011;1445;52.600;13.328;2023-08-21T01:44:00;2.72;;;1.92;;
2874;SDS011;1445;52.600;13.328;2023-08-21T01:46:25;2.40;;;1.77;;
2874;SDS011;1445;52.600;13.328;2023-08-21T01:48:50;4.82;;;2.53;;
2874;SDS011;1445;52.600;13.328;2023-08-21T01:51:16;4.00;;;2.00;;
2874;SDS011;1445;52.600;13.328;2023-08-21T01:53:41;2.20;;;1.63;;
2874;SDS011;1445;52.600;13.328;2023-08-21T01:56:07;1.35;;;1.25;;
2874;SDS011;1445;52.600;13.328;2023-08-21T01:58:32;3.38;;;2.33;;
2874;SDS011;1445;52.600;13.328;2023-08-21T02:00:57;5.38;;;2.03;;
2874;SDS011;1445;52.600;13.328;2023-08-21T02:03:24;3.28;;;1.77;;
2874;SDS011;1445;52.600;13.328;2023-08-21T02:05:50;3.10;;;2.08;;
2874;SDS011;1445;52.600;13.328;2023-08-21T02:08:16;2.00;;;1.70;;
2874;SDS011;1445;52.600;13.328;2023-08-21T02:10:49;5.03;;;2.75;;
2874;SDS011;1445;52.600;13.328;2023-08-21T02:13:18;3.53;;;1.95;;
2874;SDS011;1445;52.600;13.328;2023-08-21T02:15:44;1.38;;;1.20;;
2874;SDS011;1445;52.600;13.328;2023-08-21T02:18:09;3.60;;;2.25;;
2874;SDS011;1445;52.600;13.328;2023-08-21T02:20:35;4.40;;;2.25;;
2874;SDS011;1445;52.600;13.328;2023-08-21T02:23:00;2.20;;;2.00;;
2874;SDS011;1445;52.600;13.328;2023-08-21T02:25:26;1.77;;;1.60;;
2874;SDS011;1445;52.600;13.328;2023-08-21T02:27:51;3.20;;;1.65;;
2874;SDS011;1445;52.600;13.328;2023-08-21T02:30:16;2.53;;;1.75;;
2874;SDS011;1445;52.600;13.328;2023-08-21T02:32:42;2.63;;;1.92;;
2874;SDS011;1445;52.600;13.328;2023-08-21T02:35:07;4.63;;;2.17;;
2874;SDS011;1445;52.600;13.328;2023-08-21T02:37:33;2.42;;;1.58;;
2874;SDS011;1445;52.600;13.328;2023-08-21T02:39:59;1.45;;;1.25;;
2874;SDS011;1445;52.600;13.328;2023-08-21T02:42:25;2.72;;;2.38;;
2874;SDS011;1445;52.600;13.328;2023-08-21T02:44:50;1.20;;;0.98;;
2874;SDS011;1445;52.600;13.328;2023-08-21T02:47:16;3.35;;;2.03;;
2874;SDS011;1445;52.600;13.328;2023-08-21T02:49:41;1.83;;;1.42;;
2874;SDS011;1445;52.600;13.328;2023-08-21T02:52:07;3.80;;;1.77;;
2874;SDS011;1445;52.600;13.328;2023-08-21T02:54:32;1.35;;;1.25;;
2874;SDS011;1445;52.600;13.328;2023-08-21T02:56:58;1.30;;;1.20;;
2874;SDS011;1445;52.600;13.328;2023-08-21T02:59:23;1.75;;;1.65;;
2874;SDS011;1445;52.600;13.328;2023-08-21T03:01:48;3.60;;;1.67;;
2874;SDS011;1445;52.600;13.328;2023-08-21T03:04:14;3.05;;;1.83;;
2874;SDS011;1445;52.600;13.328;2023-08-21T03:06:39;2.42;;;1.25;;
2874;SDS011;1445;52.600;13.328;2023-08-21T03:09:05;1.38;;;1.27;;
2874;SDS011;1445;52.600;13.328;2023-08-21T03:11:30;1.15;;;0.85;;
2874;SDS011;1445;52.600;13.328;2023-08-21T03:13:56;1.60;;;1.17;;
2874;SDS011;1445;52.600;13.328;2023-08-21T03:16:21;2.05;;;1.40;;
2874;SDS011;1445;52.600;13.328;2023-08-21T03:18:56;2.20;;;1.42;;
2874;SDS011;1445;52.600;13.328;2023-08-21T03:21:23;3.58;;;1.65;;
2874;SDS011;1445;52.600;13.328;2023-08-21T03:23:54;1.35;;;1.23;;
2874;SDS011;1445;52.600;13.328;2023-08-21T03:26:22;1.35;;;1.10;;
2874;SDS011;1445;52.600;13.328;2023-08-21T03:28:47;1.60;;;1.50;;
2874;SDS011;1445;52.600;13.328;2023-08-21T03:31:13;2.08;;;1.42;;
2874;SDS011;1445;52.600;13.328;2023-08-21T03:33:39;2.50;;;1.25;;
2874;SDS011;1445;52.600;13.328;2023-08-21T03:36:04;1.48;;;1.38;;
2874;SDS011;1445;52.600;13.328;2023-08-21T03:38:29;2.42;;;1.65;;
2874;SDS011;1445;52.600;13.328;2023-08-21T03:40:55;2.92;;;2.13;;
2874;SDS011;1445;52.600;13.328;2023-08-21T03:43:20;1.50;;;1.33;;
2874;SDS011;1445;52.600;13.328;2023-08-21T03:45:46;2.58;;;1.33;;
2874;SDS011;1445;52.600;13.328;2023-08-21T03:48:11;2.85;;;1.40;;
2874;SDS011;1445;52.600;13.328;2023-08-21T03:50:38;2.17;;;1.90;;
2874;SDS011;1445;52.600;13.328;2023-08-21T03:53:03;2.05;;;1.85;;
2874;SDS011;1445;52.600;13.328;2023-08-21T03:55:29;1.92;;;1.80;;
2874;SDS011;1445;52.600;13.328;2023-08-21T03:57:54;1.52;;;1.40;;
2874;SDS011;1445;52.600;13.328;2023-08-21T04:00:20;2.42;;;1.48;;
2874;SDS011;1445;52.600;13.328;2023-08-21T04:02:45;1.63;;;1.33;;
2874;SDS011;1445;52.600;13.328;2023-08-21T04:05:10;2.75;;;1.63;;
2874;SDS011;1445;52.600;13.328;2023-08-21T04:07:36;2.55;;;1.95;;
2874;SDS011;1445;52.600;13.328;2023-08-21T04:10:02;1.98;;;1.23;;
2874;SDS011;1445;52.600;13.328;2023-08-21T04:12:28;2.13;;;1.67;;
2874;SDS011;1445;52.600;13.328;2023-08-21T04:14:53;2.33;;;1.52;;
2874;SDS011;1445;52.600;13.328;2023-08-21T04:17:22;1.88;;;1.65;;
2874;SDS011;1445;52.600;13.328;2023-08-21T04:19:48;1.80;;;1.50;;
2874;SDS011;1445;52.600;13.328;2023-08-21T04:22:14;1.65;;;1.30;;
2874;SDS011;1445;52.600;13.328;2023-08-21T04:24:40;2.28;;;1.67;;
2874;SDS011;1445;52.600;13.328;2023-08-21T04:27:06;2.72;;;1.63;;
2874;SDS011;1445;52.600;13.328;2023-08-21T04:29:31;6.47;;;2.08;;
2874;SDS011;1445;52.600;13.328;2023-08-21T04:31:57;2.58;;;2.33;;
2874;SDS011;1445;52.600;13.328;2023-08-21T04:34:22;2.00;;;1.45;;
2874;SDS011;1445;52.600;13.328;2023-08-21T04:36:48;2.47;;;1.77;;
2874;SDS011;1445;52.600;13.328;2023-08-21T04:39:14;2.03;;;1.63;;
2874;SDS011;1445;52.600;13.328;2023-08-21T04:41:40;1.67;;;1.55;;
2874;SDS011;1445;52.600;13.328;2023-08-21T04:44:06;2.05;;;1.83;;
2874;SDS011;1445;52.600;13.328;2023-08-21T04:46:32;1.85;;;1.52;;
2874;SDS011;1445;52.600;13.328;2023-08-21T04:48:57;1.60;;;1.40;;
2874;SDS011;1445;52.600;13.328;2023-08-21T04:51:23;1.70;;;1.48;;
2874;SDS011;1445;52.600;13.328;2023-08-21T04:53:48;3.60;;;2.13;;
2874;SDS011;1445;52.600;13.328;2023-08-21T04:56:13;1.33;;;1.17;;
2874;SDS011;1445;52.600;13.328;2023-08-21T04:58:39;2.53;;;2.13;;
2874;SDS011;1445;52.600;13.328;2023-08-21T05:01:04;3.72;;;1.70;;
2874;SDS011;1445;52.600;13.328;2023-08-21T05:03:30;3.10;;;1.33;;
2874;SDS011;1445;52.600;13.328;2023-08-21T05:05:55;1.95;;;1.48;;
2874;SDS011;1445;52.600;13.328;2023-08-21T05:08:22;3.92;;;1.70;;
2874;SDS011;1445;52.600;13.328;2023-08-21T05:10:53;1.88;;;1.73;;
2874;SDS011;1445;52.600;13.328;2023-08-21T05:13:22;5.15;;;2.10;;
2874;SDS011;1445;52.600;13.328;2023-08-21T05:15:54;1.50;;;1.40;;
2874;SDS011;1445;52.600;13.328;2023-08-21T05:18:20;3.05;;;1.85;;
2874;SDS011;1445;52.600;13.328;2023-08-21T05:20:47;1.55;;;1.45;;
2874;SDS011;1445;52.600;13.328;2023-08-21T05:23:13;3.40;;;2.35;;
2874;SDS011;1445;52.600;13.328;2023-08-21T05:25:38;3.00;;;1.75;;
2874;SDS011;1445;52.600;13.328;2023-08-21T05:28:04;2.70;;;1.30;;
2874;SDS011;1445;52.600;13.328;2023-08-21T05:30:30;2.67;;;1.67;;
2874;SDS011;1445;52.600;13.328;2023-08-21T05:32:55;1.52;;;1.33;;
2874;SDS011;1445;52.600;13.328;2023-08-21T05:35:21;2.55;;;2.13;;
2874;SDS011;1445;52.600;13.328;2023-08-21T05:37:46;1.73;;;1.23;;
2874;SDS011;1445;52.600;13.328;2023-08-21T05:40:12;2.95;;;1.67;;
2874;SDS011;1445;52.600;13.328;2023-08-21T05:42:37;5.00;;;2.42;;
2874;SDS011;1445;52.600;13.328;2023-08-21T05:45:06;2.50;;;1.83;;
2874;SDS011;1445;52.600;13.328;2023-08-21T05:47:32;4.93;;;2.20;;
2874;SDS011;1445;52.600;13.328;2023-08-21T05:49:57;4.15;;;2.08;;
2874;SDS011;1445;52.600;13.328;2023-08-21T05:52:22;3.58;;;1.95;;
2874;SDS011;1445;52.600;13.328;2023-08-21T05:54:48;1.77;;;1.45;;
2874;SDS011;1445;52.600;13.328;2023-08-21T05:57:14;2.25;;;1.90;;
2874;SDS011;1445;52.600;13.328;2023-08-21T05:59:43;2.65;;;1.95;;
2874;SDS011;1445;52.600;13.328;2023-08-21T06:02:10;3.67;;;2.10;;
2874;SDS011;1445;52.600;13.328;2023-08-21T06:04:37;2.53;;;1.42;;
2874;SDS011;1445;52.600;13.328;2023-08-21T06:07:04;2.17;;;1.95;;
2874;SDS011;1445;52.600;13.328;2023-08-21T06:09:30;2.45;;;1.80;;
2874;SDS011;1445;52.600;13.328;2023-08-21T06:11:56;2.30;;;1.90;;
2874;SDS011;1445;52.600;13.328;2023-08-21T06:14:22;2.83;;;1.83;;
2874;SDS011;1445;52.600;13.328;2023-08-21T06:16:54;2.97;;;1.70;;
2874;SDS011;1445;52.600;13.328;2023-08-21T06:19:20;2.05;;;1.75;;
2874;SDS011;1445;52.600;13.328;2023-08-21T06:21:46;2.70;;;1.77;;
2874;SDS011;1445;52.600;13.328;2023-08-21T06:24:11;2.33;;;2.13;;
2874;SDS011;1445;52.600;13.328;2023-08-21T06:26:36;2.97;;;1.85;;
2874;SDS011;1445;52.600;13.328;2023-08-21T06:29:02;2.30;;;1.65;;
2874;SDS011;1445;52.600;13.328;2023-08-21T06:31:27;2.38;;;2.17;;
2874;SDS011;1445;52.600;13.328;2023-08-21T06:33:53;4.20;;;1.85;;
2874;SDS011;1445;52.600;13.328;2023-08-21T06:36:19;2.70;;;1.92;;
2874;SDS011;1445;52.600;13.328;2023-08-21T06:38:44;1.38;;;1.27;;
2874;SDS011;1445;52.600;13.328;2023-08-21T06:41:09;2.33;;;1.67;;
2874;SDS011;1445;52.600;13.328;2023-08-21T06:43:35;2.47;;;2.10;;
2874;SDS011;1445;52.600;13.328;2023-08-21T06:46:01;2.15;;;1.80;;
2874;SDS011;1445;52.600;13.328;2023-08-21T06:48:26;5.90;;;2.65;;
2874;SDS011;1445;52.600;13.328;2023-08-21T06:50:52;5.45;;;3.05;;
2874;SDS011;1445;52.600;13.328;2023-08-21T06:53:17;2.70;;;1.73;;
2874;SDS011;1445;52.600;13.328;2023-08-21T06:55:44;7.82;;;2.47;;
2874;SDS011;1445;52.600;13.328;2023-08-21T06:58:11;3.22;;;2.13;;
2874;SDS011;1445;52.600;13.328;2023-08-21T07:00:36;2.38;;;1.38;;
2874;SDS011;1445;52.600;13.328;2023-08-21T07:03:02;3.30;;;2.03;;
2874;SDS011;1445;52.600;13.328;2023-08-21T07:05:28;3.97;;;2.20;;
2874;SDS011;1445;52.600;13.328;2023-08-21T07:07:54;2.72;;;2.28;;
2874;SDS011;1445;52.600;13.328;2023-08-21T07:10:20;1.95;;;1.85;;
2874;SDS011;1445;52.600;13.328;2023-08-21T07:12:46;3.15;;;2.40;;
2874;SDS011;1445;52.600;13.328;2023-08-21T07:15:11;3.78;;;1.90;;
2874;SDS011;1445;52.600;13.328;2023-08-21T07:17:37;3.33;;;2.50;;
2874;SDS011;1445;52.600;13.328;2023-08-21T07:20:03;13.48;;;1.95;;
2874;SDS011;1445;52.600;13.328;2023-08-21T07:22:29;3.53;;;1.60;;
2874;SDS011;1445;52.600;13.328;2023-08-21T07:24:54;3.53;;;1.88;;
2874;SDS011;1445;52.600;13.328;2023-08-21T07:27:23;1.40;;;1.30;;
2874;SDS011;1445;52.600;13.328;2023-08-21T07:29:48;1.65;;;1.55;;
2874;SDS011;1445;52.600;13.328;2023-08-21T07:32:14;1.75;;;1.20;;
2874;SDS011;1445;52.600;13.328;2023-08-21T07:34:39;1.42;;;1.33;;
2874;SDS011;1445;52.600;13.328;2023-08-21T07:37:07;1.55;;;1.42;;
2874;SDS011;1445;52.600;13.328;2023-08-21T07:39:33;2.78;;;1.75;;
2874;SDS011;1445;52.600;13.328;2023-08-21T07:41:58;1.05;;;0.95;;
2874;SDS011;1445;52.600;13.328;2023-08-21T07:44:24;2.88;;;0.98;;
2874;SDS011;1445;52.600;13.328;2023-08-21T07:46:49;1.05;;;0.88;;
2874;SDS011;1445;52.600;13.328;2023-08-21T07:49:15;1.02;;;0.95;;
2874;SDS011;1445;52.600;13.328;2023-08-21T07:51:40;0.90;;;0.85;;
2874;SDS011;1445;52.600;13.328;2023-08-21T07:54:05;0.98;;;0.75;;
2874;SDS011;1445;52.600;13.328;2023-08-21T07:56:31;1.40;;;1.30;;
2874;SDS011;1445;52.600;13.328;2023-08-21T07:58:57;1.25;;;1.13;;
2874;SDS011;1445;52.600;13.328;2023-08-21T08:01:22;2.28;;;1.58;;
2874;SDS011;1445;52.600;13.328;2023-08-21T08:03:48;2.28;;;1.20;;
2874;SDS011;1445;52.600;13.328;2023-08-21T08:06:14;3.55;;;1.10;;
2874;SDS011;1445;52.600;13.328;2023-08-21T08:08:40;1.67;;;0.80;;
2874;SDS011;1445;52.600;13.328;2023-08-21T08:11:05;1.90;;;1.30;;
2874;SDS011;1445;52.600;13.328;2023-08-21T08:13:31;0.35;;;0.35;;
2874;SDS011;1445;52.600;13.328;2023-08-21T08:15:57;3.50;;;1.05;;
2874;SDS011;1445;52.600;13.328;2023-08-21T08:18:23;0.40;;;0.40;;
2874;SDS011;1445;52.600;13.328;2023-08-21T08:20:52;0.60;;;0.60;;
2874;SDS011;1445;52.600;13.328;2023-08-21T08:23:21;0.63;;;0.63;;
2874;SDS011;1445;52.600;13.328;2023-08-21T08:25:48;0.40;;;0.40;;
2874;SDS011;1445;52.600;13.328;2023-08-21T08:28:14;0.22;;;0.22;;
2874;SDS011;1445;52.600;13.328;2023-08-21T08:30:39;0.38;;;0.38;;
2874;SDS011;1445;52.600;13.328;2023-08-21T08:33:04;0.95;;;0.50;;
2874;SDS011;1445;52.600;13.328;2023-08-21T08:35:30;1.48;;;0.63;;
2874;SDS011;1445;52.600;13.328;2023-08-21T08:37:55;0.38;;;0.38;;
2874;SDS011;1445;52.600;13.328;2023-08-21T08:40:21;0.28;;;0.28;;
2874;SDS011;1445;52.600;13.328;2023-08-21T08:42:47;0.35;;;0.35;;
2874;SDS011;1445;52.600;13.328;2023-08-21T08:45:13;0.60;;;0.40;;
2874;SDS011;1445;52.600;13.328;2023-08-21T08:47:39;1.40;;;0.55;;
2874;SDS011;1445;52.600;13.328;2023-08-21T08:50:06;0.95;;;0.47;;
2874;SDS011;1445;52.600;13.328;2023-08-21T08:52:39;0.40;;;0.40;;
2874;SDS011;1445;52.600;13.328;2023-08-21T08:55:06;0.90;;;0.45;;
2874;SDS011;1445;52.600;13.328;2023-08-21T08:57:32;0.50;;;0.50;;
2874;SDS011;1445;52.600;13.328;2023-08-21T08:59:58;0.20;;;0.20;;
2874;SDS011;1445;52.600;13.328;2023-08-21T09:02:24;0.35;;;0.22;;
2874;SDS011;1445;52.600;13.328;2023-08-21T09:04:51;0.20;;;0.20;;
2874;SDS011;1445;52.600;13.328;2023-08-21T09:07:17;3.75;;;0.82;;
2874;SDS011;1445;52.600;13.328;2023-08-21T09:09:45;0.30;;;0.30;;
2874;SDS011;1445;52.600;13.328;2023-08-21T09:12:12;0.50;;;0.35;;
2874;SDS011;1445;52.600;13.328;2023-08-21T09:14:39;0.68;;;0.60;;
2874;SDS011;1445;52.600;13.328;2023-08-21T09:17:05;0.35;;;0.35;;
2874;SDS011;1445;52.600;13.328;2023-08-21T09:19:31;2.50;;;0.77;;
2874;SDS011;1445;52.600;13.328;2023-08-21T09:21:57;0.43;;;0.43;;
2874;SDS011;1445;52.600;13.328;2023-08-21T09:24:23;0.50;;;0.50;;
2874;SDS011;1445;52.600;13.328;2023-08-21T09:26:49;0.20;;;0.20;;
2874;SDS011;1445;52.600;13.328;2023-08-21T09:29:15;0.60;;;0.50;;
2874;SDS011;1445;52.600;13.328;2023-08-21T09:31:43;0.35;;;0.32;;
2874;SDS011;1445;52.600;13.328;2023-08-21T09:34:10;1.17;;;0.63;;
2874;SDS011;1445;52.600;13.328;2023-08-21T09:36:36;0.47;;;0.47;;
2874;SDS011;1445;52.600;13.328;2023-08-21T09:39:04;0.20;;;0.20;;
2874;SDS011;1445;52.600;13.328;2023-08-21T09:41:31;0.20;;;0.20;;
2874;SDS011;1445;52.600;13.328;2023-08-21T09:43:59;0.75;;;0.60;;
2874;SDS011;1445;52.600;13.328;2023-08-21T09:46:26;0.43;;;0.43;;
2874;SDS011;1445;52.600;13.328;2023-08-21T09:48:52;0.30;;;0.30;;
2874;SDS011;1445;52.600;13.328;2023-08-21T09:51:19;0.40;;;0.40;;
2874;SDS011;1445;52.600;13.328;2023-08-21T09:53:45;0.30;;;0.30;;
2874;SDS011;1445;52.600;13.328;2023-08-21T09:56:13;0.95;;;0.77;;
2874;SDS011;1445;52.600;13.328;2023-08-21T09:58:39;0.52;;;0.52;;
2874;SDS011;1445;52.600;13.328;2023-08-21T10:01:06;1.05;;;0.73;;
2874;SDS011;1445;52.600;13.328;2023-08-21T10:03:39;0.40;;;0.40;;
2874;SDS011;1445;52.600;13.328;2023-08-21T10:06:07;2.55;;;0.60;;
2874;SDS011;1445;52.600;13.328;2023-08-21T10:08:36;0.60;;;0.60;;
2874;SDS011;1445;52.600;13.328;2023-08-21T10:11:06;0.40;;;0.40;;
2874;SDS011;1445;52.600;13.328;2023-08-21T10:13:33;0.40;;;0.38;;
2874;SDS011;1445;52.600;13.328;2023-08-21T10:15:59;0.80;;;0.50;;
2874;SDS011;1445;52.600;13.328;2023-08-21T10:18:29;0.63;;;0.43;;
2874;SDS011;1445;52.600;13.328;2023-08-21T10:20:56;0.40;;;0.40;;
2874;SDS011;1445;52.600;13.328;2023-08-21T10:23:35;0.38;;;0.38;;
2874;SDS011;1445;52.600;13.328;2023-08-21T10:26:05;0.40;;;0.40;;
2874;SDS011;1445;52.600;13.328;2023-08-21T10:31:41;1.45;;;0.95;;
2874;SDS011;1445;52.600;13.328;2023-08-21T10:34:09;0.40;;;0.40;;
2874;SDS011;1445;52.600;13.328;2023-08-21T10:42:04;0.30;;;0.30;;
2874;SDS011;1445;52.600;13.328;2023-08-21T10:47:21;0.38;;;0.38;;
2874;SDS011;1445;52.600;13.328;2023-08-21T10:49:51;0.50;;;0.30;;
2874;SDS011;1445;52.600;13.328;2023-08-21T10:52:20;0.40;;;0.40;;
2874;SDS011;1445;52.600;13.328;2023-08-21T10:54:48;1.13;;;0.47;;
2874;SDS011;1445;52.600;13.328;2023-08-21T10:57:15;0.65;;;0.65;;
2874;SDS011;1445;52.600;13.328;2023-08-21T11:02:17;4.20;;;0.60;;
2874;SDS011;1445;52.600;13.328;2023-08-21T11:04:43;0.60;;;0.52;;
2874;SDS011;1445;52.600;13.328;2023-08-21T11:07:11;1.08;;;0.60;;
2874;SDS011;1445;52.600;13.328;2023-08-21T11:09:37;1.20;;;0.60;;
2874;SDS011;1445;52.600;13.328;2023-08-21T11:12:10;2.55;;;0.85;;
2874;SDS011;1445;52.600;13.328;2023-08-21T11:14:36;4.82;;;0.70;;
2874;SDS011;1445;52.600;13.328;2023-08-21T11:17:03;0.43;;;0.38;;
2874;SDS011;1445;52.600;13.328;2023-08-21T11:19:32;4.75;;;1.17;;
2874;SDS011;1445;52.600;13.328;2023-08-21T11:22:01;0.30;;;0.30;;
2874;SDS011;1445;52.600;13.328;2023-08-21T11:24:45;0.32;;;0.32;;
2874;SDS011;1445;52.600;13.328;2023-08-21T11:27:17;1.15;;;0.70;;
2874;SDS011;1445;52.600;13.328;2023-08-21T11:29:47;0.68;;;0.52;;
2874;SDS011;1445;52.600;13.328;2023-08-21T11:32:15;0.20;;;0.20;;
2874;SDS011;1445;52.600;13.328;2023-08-21T11:34:42;1.75;;;0.77;;
2874;SDS011;1445;52.600;13.328;2023-08-21T11:37:13;0.15;;;0.15;;
2874;SDS011;1445;52.600;13.328;2023-08-21T11:39:42;0.45;;;0.45;;
2874;SDS011;1445;52.600;13.328;2023-08-21T11:42:10;1.38;;;0.93;;
2874;SDS011;1445;52.600;13.328;2023-08-21T11:44:40;0.45;;;0.45;;
2874;SDS011;1445;52.600;13.328;2023-08-21T11:47:06;0.20;;;0.20;;
2874;SDS011;1445;52.600;13.328;2023-08-21T11:49:32;0.32;;;0.32;;
2874;SDS011;1445;52.600;13.328;2023-08-21T11:51:58;0.50;;;0.30;;
2874;SDS011;1445;52.600;13.328;2023-08-21T11:54:23;0.60;;;0.60;;
2874;SDS011;1445;52.600;13.328;2023-08-21T11:56:48;0.30;;;0.30;;
2874;SDS011;1445;52.600;13.328;2023-08-21T11:59:23;0.30;;;0.30;;
2874;SDS011;1445;52.600;13.328;2023-08-21T12:01:52;0.20;;;0.20;;
2874;SDS011;1445;52.600;13.328;2023-08-21T12:04:17;0.20;;;0.20;;
2874;SDS011;1445;52.600;13.328;2023-08-21T12:06:43;0.50;;;0.50;;
2874;SDS011;1445;52.600;13.328;2023-08-21T12:09:10;0.30;;;0.30;;
2874;SDS011;1445;52.600;13.328;2023-08-21T12:11:36;0.55;;;0.55;;
2874;SDS011;1445;52.600;13.328;2023-08-21T12:14:03;1.55;;;0.88;;
2874;SDS011;1445;52.600;13.328;2023-08-21T12:16:29;0.40;;;0.40;;
2874;SDS011;1445;52.600;13.328;2023-08-21T12:18:54;0.40;;;0.40;;
2874;SDS011;1445;52.600;13.328;2023-08-21T12:21:22;0.30;;;0.30;;
2874;SDS011;1445;52.600;13.328;2023-08-21T12:23:50;0.77;;;0.63;;
2874;SDS011;1445;52.600;13.328;2023-08-21T12:26:16;0.20;;;0.20;;
2874;SDS011;1445;52.600;13.328;2023-08-21T12:28:46;4.63;;;0.55;;
2874;SDS011;1445;52.600;13.328;2023-08-21T12:31:12;0.38;;;0.38;;
2874;SDS011;1445;52.600;13.328;2023-08-21T12:33:38;2.58;;;0.60;;
2874;SDS011;1445;52.600;13.328;2023-08-21T12:36:03;0.40;;;0.40;;
2874;SDS011;1445;52.600;13.328;2023-08-21T12:38:29;0.55;;;0.30;;
2874;SDS011;1445;52.600;13.328;2023-08-21T12:40:54;0.35;;;0.25;;
2874;SDS011;1445;52.600;13.328;2023-08-21T12:43:20;0.30;;;0.30;;
2874;SDS011;1445;52.600;13.328;2023-08-21T12:45:46;0.43;;;0.32;;
2874;SDS011;1445;52.600;13.328;2023-08-21T12:48:12;0.28;;;0.28;;
2874;SDS011;1445;52.600;13.328;2023-08-21T12:50:38;0.47;;;0.32;;
2874;SDS011;1445;52.600;13.328;2023-08-21T12:53:03;0.20;;;0.20;;
2874;SDS011;1445;52.600;13.328;2023-08-21T12:55:29;0.30;;;0.28;;
2874;SDS011;1445;52.600;13.328;2023-08-21T12:57:55;0.30;;;0.30;;
2874;SDS011;1445;52.600;13.328;2023-08-21T13:00:21;0.40;;;0.40;;
2874;SDS011;1445;52.600;13.328;2023-08-21T13:02:46;0.40;;;0.40;;
2874;SDS011;1445;52.600;13.328;2023-08-21T13:05:12;0.28;;;0.28;;
2874;SDS011;1445;52.600;13.328;2023-08-21T13:07:37;1.35;;;0.57;;
2874;SDS011;1445;52.600;13.328;2023-08-21T13:10:03;0.47;;;0.43;;
2874;SDS011;1445;52.600;13.328;2023-08-21T13:12:28;0.10;;;0.10;;
2874;SDS011;1445;52.600;13.328;2023-08-21T13:14:54;0.70;;;0.30;;
2874;SDS011;1445;52.600;13.328;2023-08-21T13:17:19;0.38;;;0.38;;
2874;SDS011;1445;52.600;13.328;2023-08-21T13:19:45;0.60;;;0.50;;
2874;SDS011;1445;52.600;13.328;2023-08-21T13:22:10;0.40;;;0.40;;
2874;SDS011;1445;52.600;13.328;2023-08-21T13:24:36;0.38;;;0.38;;
2874;SDS011;1445;52.600;13.328;2023-08-21T13:27:01;0.15;;;0.15;;
2874;SDS011;1445;52.600;13.328;2023-08-21T13:29:26;0.38;;;0.38;;
2874;SDS011;1445;52.600;13.328;2023-08-21T13:31:52;0.80;;;0.50;;
2874;SDS011;1445;52.600;13.328;2023-08-21T13:34:17;0.20;;;0.20;;
2874;SDS011;1445;52.600;13.328;2023-08-21T13:36:43;1.55;;;0.30;;
2874;SDS011;1445;52.600;13.328;2023-08-21T13:39:08;0.40;;;0.40;;
2874;SDS011;1445;52.600;13.328;2023-08-21T13:41:36;0.20;;;0.20;;
2874;SDS011;1445;52.600;13.328;2023-08-21T13:44:01;1.45;;;0.60;;
2874;SDS011;1445;52.600;13.328;2023-08-21T13:46:31;0.40;;;0.35;;
2874;SDS011;1445;52.600;13.328;2023-08-21T13:48:58;1.15;;;0.65;;
2874;SDS011;1445;52.600;13.328;2023-08-21T13:51:23;0.40;;;0.40;;
2874;SDS011;1445;52.600;13.328;2023-08-21T13:53:48;2.15;;;0.57;;
2874;SDS011;1445;52.600;13.328;2023-08-21T13:56:14;0.75;;;0.75;;
2874;SDS011;1445;52.600;13.328;2023-08-21T13:58:39;0.45;;;0.43;;
2874;SDS011;1445;52.600;13.328;2023-08-21T14:01:05;0.80;;;0.45;;
2874;SDS011;1445;52.600;13.328;2023-08-21T14:03:32;0.60;;;0.45;;
2874;SDS011;1445;52.600;13.328;2023-08-21T14:05:58;1.08;;;0.65;;
2874;SDS011;1445;52.600;13.328;2023-08-21T14:08:23;0.20;;;0.20;;
2874;SDS011;1445;52.600;13.328;2023-08-21T14:10:49;0.25;;;0.20;;
2874;SDS011;1445;52.600;13.328;2023-08-21T14:13:14;0.65;;;0.20;;
2874;SDS011;1445;52.600;13.328;2023-08-21T14:15:40;0.10;;;0.10;;
2874;SDS011;1445;52.600;13.328;2023-08-21T14:18:05;0.30;;;0.30;;
2874;SDS011;1445;52.600;13.328;2023-08-21T14:20:31;0.70;;;0.50;;
2874;SDS011;1445;52.600;13.328;2023-08-21T14:22:56;0.32;;;0.32;;
2874;SDS011;1445;52.600;13.328;2023-08-21T14:25:22;0.82;;;0.32;;
2874;SDS011;1445;52.600;13.328;2023-08-21T14:27:47;0.30;;;0.30;;
2874;SDS011;1445;52.600;13.328;2023-08-21T14:30:14;0.30;;;0.30;;
2874;SDS011;1445;52.600;13.328;2023-08-21T14:32:40;0.40;;;0.40;;
2874;SDS011;1445;52.600;13.328;2023-08-21T14:35:05;0.63;;;0.40;;
2874;SDS011;1445;52.600;13.328;2023-08-21T14:37:34;0.40;;;0.40;;
2874;SDS011;1445;52.600;13.328;2023-08-21T14:40:04;0.20;;;0.20;;
2874;SDS011;1445;52.600;13.328;2023-08-21T14:42:33;1.00;;;0.55;;
2874;SDS011;1445;52.600;13.328;2023-08-21T14:44:59;0.20;;;0.20;;
2874;SDS011;1445;52.600;13.328;2023-08-21T14:47:24;1.45;;;0.30;;
2874;SDS011;1445;52.600;13.328;2023-08-21T14:49:50;0.80;;;0.40;;
2874;SDS011;1445;52.600;13.328;2023-08-21T14:52:16;0.40;;;0.40;;
2874;SDS011;1445;52.600;13.328;2023-08-21T14:54:42;0.10;;;0.10;;
2874;SDS011;1445;52.600;13.328;2023-08-21T14:57:07;0.63;;;0.40;;
2874;SDS011;1445;52.600;13.328;2023-08-21T14:59:35;0.22;;;0.22;;
2874;SDS011;1445;52.600;13.328;2023-08-21T15:02:01;1.15;;;0.40;;
2874;SDS011;1445;52.600;13.328;2023-08-21T15:04:26;0.10;;;0.10;;
2874;SDS011;1445;52.600;13.328;2023-08-21T15:06:52;1.85;;;0.52;;
2874;SDS011;1445;52.600;13.328;2023-08-21T15:09:17;0.20;;;0.20;;
2874;SDS011;1445;52.600;13.328;2023-08-21T15:11:42;0.50;;;0.50;;